Date,TemperatureHighF,TemperatureAvgF,TemperatureLowF,DewpointHighF,DewpointAvgF,DewpointLowF,HumidityHigh,HumidityAvg,HumidityLow,PressureMaxIn,PressureMinIn,WindSpeedMaxMPH,WindSpeedAvgMPH,GustSpeedMaxMPH,PrecipitationSumIn
2013-1-1,45.9,42.8,40.3,34.3,30.4,26.1,70,61,53,23.24,23.24,13,2,13,0.00
2013-1-2,41.2,37.5,32.2,32.0,25.2,18.2,70,61,52,23.24,23.24,17,3,17,0.00
2013-1-3,41.2,33.5,29.4,25.5,21.2,17.7,76,60,51,32.45,23.24,12,1,12,0.00
2013-1-4,46.3,36.4,27.0,27.9,24.3,21.1,80,62,47,32.45,32.45,18,2,18,0.00
2013-1-5,47.9,39.4,31.6,33.5,25.5,21.0,76,58,45,32.45,32.45,19,2,19,0.00
2013-1-6,53.9,44.8,32.2,35.6,32.9,28.8,88,64,47,32.45,32.45,18,2,18,0.00
2013-1-7,47.4,43.2,31.3,34.0,30.7,25.6,81,62,52,32.45,23.24,18,3,18,0.00
2013-1-8,56.6,40.2,29.5,39.1,32.1,25.3,86,74,51,31.30,23.24,11,1,11,0.00
2013-1-9,54.5,42.0,33.7,44.0,36.5,30.2,88,81,48,32.45,21.74,14,1,14,0.00
2013-1-10,57.6,50.9,44.0,35.6,33.6,31.3,63,52,41,32.45,23.31,17,3,17,0.00
2013-1-11,46.0,43.1,38.2,42.5,36.9,30.6,93,79,60,31.69,27.12,4,0,9,0.03
2013-1-12,52.3,45.8,43.3,47.6,43.5,41.4,94,92,83,32.44,22.52,6,1,6,0.00
2013-1-13,56.3,49.7,44.0,55.2,48.3,42.4,96,95,94,31.99,23.24,7,1,7,0.01
2013-1-14,61.6,55.4,42.5,60.2,50.0,38.1,96,83,65,23.79,23.24,20,3,20,0.10
2013-1-15,43.2,41.5,38.7,40.2,38.7,36.0,95,90,85,23.24,23.24,11,2,11,0.72
2013-1-16,43.2,39.8,37.3,41.2,37.4,34.9,93,91,89,23.24,23.24,14,2,14,0.23
2013-1-17,46.2,43.4,40.6,42.6,37.3,32.2,93,80,60,32.45,23.24,14,2,14,0.01
2013-1-18,40.7,37.3,32.8,33.1,24.9,17.6,77,61,45,30.35,23.28,27,4,27,0.01
2013-1-19,54.4,41.8,33.0,35.1,29.8,24.1,76,63,46,23.28,23.28,19,4,19,0.00
2013-1-20,61.4,47.9,39.3,38.4,29.6,18.0,69,50,30,23.28,23.28,24,4,24,0.00
2013-1-21,48.4,39.2,32.2,32.8,23.9,17.0,62,54,44,23.28,23.28,28,3,28,0.00
2013-1-22,32.3,23.9,20.0,16.7,6.5,2.1,56,47,37,23.28,23.28,30,7,30,0.00
2013-1-23,29.0,22.8,14.1,19.8,7.7,4.0,77,52,39,23.28,23.28,15,2,15,0.00
2013-1-24,28.5,24.2,20.2,21.7,14.7,7.5,92,68,43,23.28,23.28,25,4,25,0.01
2013-1-25,26.1,22.7,20.7,19.6,11.2,5.7,83,62,48,23.28,23.28,15,2,15,0.00
2013-1-26,36.4,30.2,24.3,28.5,23.4,19.0,82,76,63,23.28,23.28,13,2,13,0.01
2013-1-27,41.6,32.8,27.6,25.9,23.3,20.4,83,68,50,23.28,23.28,11,1,11,0.00
2013-1-28,48.9,38.5,33.5,44.0,33.5,25.1,96,82,71,23.28,23.28,15,2,15,0.15
2013-1-29,70.5,54.8,44.0,56.3,48.2,41.0,91,79,61,23.28,23.28,11,1,11,0.00
2013-1-30,70.7,63.0,57.8,63.5,57.8,52.5,95,83,76,23.28,23.28,27,4,27,0.68
2013-1-31,64.8,48.3,32.6,62.4,35.5,17.4,92,62,40,23.28,23.27,30,8,30,0.37
2013-2-1,37.1,29.9,21.7,27.5,16.8,7.7,87,58,45,23.27,23.27,32,5,32,0.00
2013-2-2,33.4,26.4,17.9,29.4,17.0,7.6,89,68,49,23.27,23.27,15,2,15,0.00
2013-2-3,35.9,31.4,25.6,31.1,27.1,21.1,91,84,58,23.27,23.27,19,1,19,0.01
2013-2-4,38.7,33.4,28.1,26.7,20.7,15.3,66,59,52,23.27,23.27,29,3,29,0.00
2013-2-5,45.5,40.0,33.4,33.6,29.9,25.1,76,67,60,23.27,23.27,7,0,7,0.00
2013-2-6,48.1,40.6,33.7,33.7,30.3,25.6,83,67,52,23.27,23.27,22,3,22,0.00
2013-2-7,43.6,37.6,30.2,33.4,28.7,23.8,81,70,61,23.27,23.27,15,2,15,0.00
2013-2-8,44.1,39.7,35.9,39.1,34.4,25.5,90,82,62,23.27,23.27,33,5,33,0.22
2013-2-10,43.7,41.6,37.6,31.0,27.0,24.1,68,56,49,23.27,23.27,10,2,16,0.22
2013-2-11,53.9,46.1,38.9,50.9,43.1,30.8,94,90,68,23.27,22.49,12,2,12,0.22
2013-2-12,59.9,51.2,45.2,42.8,34.2,31.3,78,53,39,32.44,22.49,23,3,23,0.01
2013-2-13,49.2,42.0,36.5,39.8,33.8,29.8,90,73,59,32.45,22.49,13,2,13,0.19
2013-2-14,52.6,42.1,34.6,34.8,32.5,30.3,91,71,44,32.44,22.88,14,2,14,0.01
2013-2-15,61.4,46.2,35.9,40.6,36.0,31.9,89,70,40,32.44,32.44,26,3,26,0.09
2013-2-16,41.4,38.5,33.0,37.9,31.9,20.5,91,78,56,32.44,32.44,19,3,19,0.01
2013-2-17,33.3,29.9,26.3,20.7,15.6,10.1,68,55,44,32.44,32.44,28,8,31,0.00
2013-2-18,43.6,33.6,23.1,23.8,16.3,11.2,67,50,36,32.44,32.44,16,3,16,0.00
2013-2-19,46.7,41.1,38.2,42.1,31.8,22.2,92,70,50,32.44,32.44,18,3,20,0.08
2013-2-20,40.9,35.5,27.5,29.4,20.4,13.0,65,54,46,32.45,22.52,29,7,29,0.00
2013-2-21,41.3,32.6,26.3,23.1,18.5,13.0,64,56,46,31.70,30.05,11,6,23,0.00
2013-2-22,37.3,34.9,32.5,33.5,26.7,20.4,86,72,59,30.27,28.29,5,2,13,0.05
2013-2-23,47.6,41.4,36.5,44.1,38.5,32.7,92,89,86,0.00,40.00,5,2,11,0.06
2013-2-24,53.4,44.8,35.5,42.2,34.6,22.6,91,69,46,0.00,40.00,14,6,27,0.00
2013-2-25,49.2,39.6,31.5,31.2,26.6,22.5,76,60,46,32.02,32.02,15,2,15,0.00
2013-2-26,46.9,39.6,31.2,44.6,35.1,25.9,92,84,71,32.02,32.02,23,3,23,0.71
2013-2-27,57.9,49.4,41.5,46.0,41.0,35.8,93,74,54,32.02,32.02,13,2,13,0.01
2013-2-28,49.1,45.4,42.9,39.8,33.5,28.9,81,63,47,32.02,32.02,19,4,19,0.01
2013-3-1,45.6,42.5,38.4,33.7,31.2,27.8,70,64,54,32.02,32.02,21,5,21,0.00
2013-3-2,38.7,35.5,32.5,27.8,25.3,23.0,73,66,56,32.02,32.02,20,4,21,0.00
2013-3-3,42.7,35.8,31.3,25.3,23.1,20.2,76,60,48,32.02,32.02,23,6,23,0.00
2013-3-4,45.1,36.6,30.6,25.4,21.6,18.3,65,55,43,32.02,32.02,27,6,27,0.00
2013-3-5,52.9,42.4,33.0,34.5,25.8,21.1,84,53,32,32.02,32.02,17,2,17,0.01
2013-3-6,41.1,37.5,35.0,37.1,34.1,32.0,91,88,77,32.45,23.24,32,7,33,1.32
2013-3-7,50.4,43.6,36.5,34.2,32.2,29.9,81,65,50,32.45,23.25,29,7,29,0.00
2013-3-8,50.4,44.1,38.6,33.6,31.3,28.7,71,61,51,32.44,31.49,30,9,30,0.00
2013-3-9,62.4,48.3,38.0,34.0,30.8,27.6,69,53,33,31.49,31.49,18,3,18,0.00
2013-3-10,63.5,49.3,33.2,38.0,31.5,27.6,83,54,29,31.49,31.49,16,2,16,0.00
2013-3-11,62.3,52.6,44.5,52.4,46.0,37.7,90,79,69,31.49,31.49,15,4,15,0.00
2013-3-12,59.8,54.9,44.9,56.9,47.4,33.5,93,76,59,31.49,31.49,25,6,25,0.77
2013-3-13,52.1,43.6,36.1,34.5,30.1,22.7,79,60,39,31.49,31.49,24,4,24,0.01
2013-3-14,47.2,39.9,33.9,25.0,22.6,19.3,62,50,39,32.00,30.82,29,7,29,0.00
2013-3-15,59.4,45.9,31.4,37.9,28.8,22.2,73,52,37,31.99,31.99,19,2,19,0.00
2013-3-16,61.2,50.2,42.9,50.1,39.4,34.9,77,67,55,31.99,31.99,17,2,17,0.00
2013-3-17,43.7,40.9,36.3,36.1,33.5,31.1,84,75,63,31.99,28.95,11,1,11,0.00
2013-3-18,41.4,38.6,33.1,38.5,33.2,26.1,91,81,59,28.95,28.95,14,2,14,0.32
2013-3-19,60.4,47.9,38.3,42.4,33.9,17.5,91,64,24,28.95,28.95,27,4,27,0.00
2013-3-20,53.6,47.0,38.6,28.0,21.3,16.8,54,36,30,28.95,28.95,25,5,25,0.00
2013-3-21,44.1,36.1,31.2,29.8,20.8,14.1,80,54,42,28.95,28.95,22,6,24,0.00
2013-3-22,49.9,38.7,28.4,26.7,21.2,14.7,64,50,39,28.95,28.95,19,3,23,0.00
2013-3-23,55.5,43.9,30.1,31.0,26.9,22.3,74,52,36,28.95,28.95,21,3,21,0.00
2013-3-24,45.2,40.2,33.6,28.8,26.8,24.8,74,59,49,28.95,28.95,12,1,13,0.00
2013-3-25,40.7,37.2,34.4,36.5,34.4,31.7,91,89,85,28.95,28.95,9,2,11,0.49
2013-3-26,50.7,43.3,34.8,36.5,33.7,30.6,91,71,47,28.95,28.95,20,4,20,0.00
2013-3-27,51.2,45.2,39.9,35.2,31.8,29.3,70,60,46,28.95,28.95,27,6,27,0.00
2013-3-28,50.2,44.9,39.4,35.1,32.2,28.9,68,61,52,28.95,28.95,26,5,26,0.00
2013-3-29,57.7,49.2,42.3,36.6,34.1,31.6,71,57,41,28.95,28.95,29,3,29,0.00
2013-3-30,61.6,50.7,38.3,35.4,32.8,30.8,76,52,34,28.95,28.95,16,1,16,0.00
2013-3-31,55.2,49.9,43.0,51.0,42.4,32.7,92,76,55,28.95,28.95,14,2,14,0.00
2013-4-1,66.0,51.8,43.2,46.8,40.8,29.7,93,68,44,28.95,23.24,28,4,28,0.01
2013-4-2,51.9,44.8,37.9,29.7,22.2,19.8,58,41,31,23.27,23.27,23,5,26,0.00
2013-4-3,53.4,43.5,32.8,24.8,21.9,19.1,61,43,29,32.45,22.70,26,5,26,0.00
2013-4-4,50.9,40.8,31.2,38.1,24.5,19.5,89,54,32,32.45,23.24,16,2,16,0.07
2013-4-5,66.6,52.2,40.3,40.0,36.6,28.6,92,60,33,32.45,23.24,21,4,21,0.18
2013-4-6,58.7,49.6,40.7,35.3,28.2,24.2,65,44,31,32.44,21.75,19,4,19,0.00
2013-4-7,71.1,55.7,41.4,46.9,40.2,32.9,78,58,41,32.44,23.24,22,5,22,0.00
2013-4-8,82.0,69.4,55.9,54.9,50.5,45.4,68,52,38,32.43,23.27,15,2,15,0.00
2013-4-9,86.8,76.1,63.7,60.5,57.2,53.5,70,53,39,32.43,32.43,16,3,16,0.00
2013-4-10,92.0,80.6,68.9,64.1,59.8,56.1,65,50,38,32.43,32.43,19,3,19,0.00
2013-4-11,82.7,75.4,67.9,61.7,59.8,58.2,71,59,48,32.43,32.43,20,2,20,0.00
2013-4-14,65.5,65.5,65.5,57.4,57.4,57.4,75,75,75,0.00,40.00,6,6,16,0.00
2013-4-16,77.8,77.6,77.6,63.1,62.8,62.6,61,60,60,0.00,40.00,10,6,10,0.00
2013-4-17,80.4,69.7,64.2,63.9,59.7,57.1,80,71,57,0.00,0.00,17,3,17,0.00
2013-4-18,79.5,66.9,61.4,66.6,60.3,56.9,92,80,59,0.00,0.00,18,3,20,0.03
2013-4-19,79.5,68.7,52.6,67.8,62.3,49.0,92,81,66,32.02,0.00,28,4,28,0.95
2013-4-20,61.9,55.1,47.8,49.3,36.6,31.2,89,51,38,32.02,32.02,24,5,24,0.01
2013-4-21,57.2,49.1,41.6,35.8,30.8,25.7,68,50,35,32.02,32.02,16,2,16,0.00
2013-4-22,57.9,48.9,37.2,41.8,38.3,33.7,88,68,54,32.02,32.02,19,3,19,0.00
2013-4-23,63.7,53.7,48.2,48.2,44.1,39.5,85,70,56,32.02,32.02,14,1,14,0.00
2013-4-24,78.5,62.4,45.0,59.8,51.9,41.7,89,71,48,32.02,32.02,25,4,25,0.00
2013-4-25,66.5,56.8,47.8,51.8,38.7,35.0,70,52,33,32.02,32.02,29,4,29,0.01
2013-4-26,68.0,57.5,44.7,43.7,40.7,37.5,83,55,37,32.02,32.02,15,2,15,0.00
2013-4-27,72.8,60.2,45.7,47.9,43.7,39.9,86,57,37,32.02,32.02,12,1,12,0.00
2013-4-28,67.0,58.0,46.3,53.0,46.3,42.4,88,66,44,32.02,32.02,14,2,14,0.01
2013-4-29,60.8,57.4,54.8,58.5,54.4,47.5,93,90,67,32.02,32.02,15,2,15,0.24
2013-4-30,60.2,58.1,56.5,57.1,54.8,48.8,93,89,71,32.02,32.02,15,2,15,0.10
2013-5-1,70.8,61.2,51.2,51.4,46.6,42.4,79,61,38,32.02,23.24,19,2,19,0.00
2013-5-2,68.2,53.0,44.6,52.6,46.4,42.1,93,80,57,31.20,21.74,14,1,14,0.00
2013-5-30,89.3,82.7,77.2,73.4,70.4,67.9,74,67,59,23.27,23.27,9,1,10,0.00
2013-5-31,90.3,80.3,68.1,71.3,67.9,63.5,86,67,49,0.00,0.00,18,2,18,0.00
2013-6-1,90.2,81.0,70.5,73.4,69.3,65.1,84,68,53,0.00,0.00,15,2,15,0.00
2013-6-2,85.5,78.0,71.1,73.2,69.3,66.1,93,75,65,0.00,0.00,25,3,25,0.37
2013-6-3,83.5,72.9,67.4,71.9,67.8,60.4,94,85,63,0.00,0.00,19,1,19,0.73
2013-6-4,76.9,68.8,61.5,60.7,52.8,46.0,79,58,40,29.08,0.00,16,2,16,0.00
2013-6-5,79.7,69.3,56.0,61.2,57.3,53.0,90,68,48,32.44,23.24,14,1,14,0.00
2013-6-6,74.9,68.1,62.5,65.8,61.5,55.2,94,80,71,32.44,21.74,13,2,13,0.46
2013-6-7,71.3,69.2,66.4,69.8,67.6,64.5,96,95,92,32.02,23.81,14,1,16,1.68
2013-6-8,82.5,72.0,65.3,67.5,64.3,61.2,93,78,55,32.02,32.02,14,2,14,0.00
2013-6-9,84.1,74.2,64.5,73.2,67.5,61.5,93,80,64,32.02,32.02,12,1,12,0.00
2013-6-10,79.2,73.0,69.3,75.4,70.6,67.5,96,92,84,32.02,32.02,18,1,18,2.50
2013-6-11,85.3,75.7,66.9,70.3,67.3,65.4,95,77,59,32.02,32.02,19,2,19,0.01
2013-6-12,91.3,79.5,70.5,72.5,67.8,63.5,81,69,49,32.02,32.02,18,2,18,0.00
2013-6-13,88.0,77.5,72.3,74.9,70.4,67.5,93,80,58,32.02,23.76,20,2,20,0.01
2013-6-14,80.2,75.0,67.2,60.1,57.8,53.5,71,56,47,30.03,30.03,20,3,20,0.00
2013-6-15,84.0,74.3,62.9,63.4,60.4,56.6,81,63,47,30.03,30.03,15,2,15,0.00
2013-6-16,84.9,75.7,65.4,71.3,66.4,60.5,88,74,59,30.03,30.03,20,2,20,0.00
2013-6-17,86.8,79.5,72.4,73.2,70.4,67.0,84,74,61,30.03,30.03,11,2,11,0.00
2013-6-18,77.6,72.1,65.9,71.6,68.0,63.8,94,87,76,30.03,30.03,12,1,12,0.38
2013-6-19,77.5,70.1,64.0,66.1,63.9,60.7,94,81,64,30.03,30.03,7,1,7,0.01
2013-6-20,79.3,71.2,62.1,65.4,61.6,56.5,94,73,54,30.03,30.03,13,1,13,0.00
2013-6-21,83.7,69.9,58.4,65.4,58.7,55.1,90,70,45,30.03,30.03,11,1,11,0.00
2013-6-22,86.1,75.8,63.7,70.3,66.5,61.5,93,74,57,32.43,30.03,13,2,13,0.00
2013-6-23,85.7,76.1,69.6,74.6,70.4,66.2,94,83,66,31.67,31.67,9,1,9,1.17
2013-6-24,91.6,78.9,72.6,76.8,72.3,69.2,93,81,55,31.67,31.67,14,1,14,0.03
2013-6-25,92.3,81.9,69.9,76.3,71.9,66.3,92,73,56,31.67,31.67,26,2,26,0.00
2013-6-26,90.5,79.7,70.9,76.4,70.4,65.6,85,74,59,31.67,30.88,11,1,11,0.01
2013-6-27,81.0,74.4,69.7,74.2,70.6,67.0,93,88,78,30.88,22.51,16,2,16,0.04
2013-6-28,87.5,77.1,69.5,74.8,70.9,64.3,93,82,63,32.43,30.26,23,2,23,0.78
2013-7-1,84.1,78.9,74.3,75.4,73.7,71.5,93,85,72,23.76,23.76,13,2,13,0.16
2013-7-2,80.9,76.2,73.5,75.0,72.7,71.0,93,89,80,23.76,23.76,16,3,16,0.07
2013-7-3,86.0,77.1,72.2,78.0,73.1,69.6,95,88,76,23.76,23.76,13,2,13,0.21
2013-7-4,86.8,81.4,74.6,76.9,74.4,71.8,94,80,70,31.97,23.76,13,4,13,0.00
2013-7-5,86.2,86.2,86.2,75.3,75.3,75.3,70,70,70,31.95,31.95,7,7,7,0.00
2013-7-6,86.2,86.2,86.2,75.3,75.3,75.3,70,70,70,31.95,31.95,7,7,7,0.00
2013-7-7,86.2,86.2,86.2,75.3,75.3,75.3,70,70,70,31.95,31.95,7,7,7,0.00
2013-7-8,86.2,86.2,86.2,75.3,75.3,75.3,70,70,70,31.95,31.95,7,7,7,0.00
2013-7-9,86.2,81.3,72.1,76.6,73.5,68.3,91,78,70,32.43,22.57,10,2,10,0.00
2013-7-10,88.8,80.0,74.9,78.6,74.8,70.1,93,84,64,32.43,23.23,22,2,22,0.06
2013-7-11,86.7,78.9,74.1,73.4,71.8,70.1,91,80,61,32.43,22.48,12,2,12,0.00
2013-7-12,77.0,70.8,67.6,72.7,67.6,65.5,95,90,77,32.43,23.25,17,3,17,2.59
2013-7-13,86.3,76.7,70.1,75.6,71.0,67.7,94,83,69,31.68,27.38,5,1,11,0.00
2013-7-14,90.2,81.2,73.6,76.9,73.9,71.4,95,80,59,31.68,27.38,4,1,13,0.00
2013-7-15,94.8,84.4,73.2,76.7,74.3,70.4,92,73,54,31.68,27.38,5,1,15,0.00
2013-7-16,95.5,86.1,78.4,77.9,74.1,71.0,84,69,50,32.43,22.71,11,2,15,0.01
2013-7-17,96.2,85.2,75.3,78.0,74.4,70.7,88,71,51,31.74,21.08,12,1,12,0.00
2013-7-18,95.8,86.8,76.9,80.3,76.9,72.8,89,74,57,31.86,16.91,11,1,11,0.00
2013-7-19,95.5,87.6,79.8,81.6,77.8,73.6,84,73,60,32.11,18.61,15,2,15,0.00
2013-7-20,93.0,84.9,77.9,78.6,75.8,72.4,88,75,58,30.87,19.27,15,2,15,0.00
2013-7-21,92.2,81.4,73.3,75.9,73.0,69.8,91,77,57,30.87,20.93,11,1,11,0.01
2013-7-22,89.3,80.6,73.0,77.4,74.0,70.5,93,81,63,30.88,16.91,11,1,11,0.05
2013-7-23,88.3,80.1,72.8,74.0,71.6,68.6,94,77,57,30.88,19.42,19,2,20,0.02
2013-7-24,86.0,78.4,71.3,70.7,67.5,61.6,88,70,54,30.88,19.28,15,3,15,0.00
2013-7-25,81.3,73.1,64.3,65.3,60.0,54.8,78,64,52,30.88,19.28,17,2,17,0.00
2013-7-26,84.5,74.2,63.6,65.7,63.2,60.4,91,70,47,16.93,16.93,12,1,12,0.00
2013-7-27,84.6,74.2,68.4,72.8,68.7,64.8,93,84,65,30.88,30.85,13,2,15,0.56
2013-7-28,84.8,75.0,69.8,73.3,70.1,66.4,92,85,67,32.37,30.12,10,1,10,0.02
2013-7-29,82.7,74.2,65.7,70.0,62.3,57.5,91,68,48,30.85,16.92,14,2,15,0.00
2013-7-30,82.7,73.4,63.2,65.8,62.1,57.9,85,69,52,30.88,16.92,13,1,13,0.00
2013-7-31,80.2,72.9,66.4,71.3,67.1,62.5,93,82,67,30.85,16.17,17,1,17,0.51
2013-8-1,84.2,73.7,68.7,74.6,70.2,66.9,95,89,67,17.43,17.43,6,1,10,0.41
2013-8-2,86.3,77.2,65.5,69.0,67.3,63.7,94,74,55,30.88,17.43,14,2,14,0.01
2013-8-3,82.9,73.6,68.6,70.4,67.2,65.0,90,81,63,30.88,16.91,14,1,14,0.02
2013-8-4,81.8,73.4,65.8,66.9,62.2,58.3,93,70,48,30.88,16.93,19,3,19,0.00
2013-8-5,81.3,71.8,61.4,62.0,58.9,56.0,84,65,47,30.88,16.93,12,1,12,0.00
2013-8-6,72.8,70.1,67.8,67.6,65.8,61.5,92,86,78,30.88,16.92,9,1,9,0.02
2013-8-7,82.8,75.7,69.8,75.3,70.3,66.3,91,84,73,32.13,19.17,14,1,14,0.06
2013-8-8,85.0,79.1,74.5,76.0,73.7,71.4,91,84,74,32.14,30.84,13,2,13,0.00
2013-8-9,91.0,83.2,76.6,78.7,75.3,72.2,91,78,64,32.15,18.58,20,2,20,0.00
2013-8-10,83.7,78.2,72.2,72.9,69.7,65.2,86,76,62,30.88,16.91,11,1,11,0.01
2013-8-11,83.7,77.0,71.4,72.4,69.5,67.2,90,78,61,30.88,16.92,13,1,13,0.00
2013-8-12,89.8,79.9,71.1,73.4,70.6,68.1,93,75,53,32.36,16.92,13,1,13,0.00
2013-8-13,87.5,78.2,69.9,74.4,71.6,66.4,94,81,61,32.36,32.36,30,1,30,0.43
2013-8-14,75.8,69.0,62.0,69.2,56.3,51.4,94,65,52,32.12,19.19,20,4,23,0.00
2013-8-15,79.5,67.6,56.6,58.5,55.7,52.6,88,68,42,31.16,16.92,12,1,12,0.00
2013-8-16,79.8,67.6,57.5,61.4,57.9,55.1,93,73,49,32.12,16.92,10,1,10,0.00
2013-8-17,79.7,70.4,59.0,64.8,60.5,56.4,93,72,52,32.49,21.09,13,1,13,0.00
2013-8-18,73.1,68.7,64.9,66.1,64.1,61.3,92,85,69,32.49,30.85,9,1,9,0.17
2013-8-19,73.8,68.7,62.7,68.0,64.7,60.8,94,87,81,32.12,21.09,9,1,9,0.00
2013-8-20,86.9,76.6,65.7,73.0,69.1,63.6,94,79,59,32.12,30.09,12,1,12,0.00
2013-8-21,88.5,78.4,70.8,74.5,71.9,69.0,95,82,61,32.15,19.42,14,1,14,0.13
2013-8-22,88.5,79.8,71.9,72.8,70.7,68.3,95,75,56,30.88,16.92,13,2,13,0.00
2013-8-23,78.5,71.9,62.6,71.0,66.2,59.5,92,83,65,16.92,16.92,12,1,12,0.44
2013-8-24,84.0,71.9,60.7,66.0,62.4,58.7,94,74,49,31.40,16.93,11,1,11,0.00
2013-8-25,82.8,71.7,61.5,66.9,61.5,57.1,94,72,51,30.67,19.20,12,1,12,0.00
2013-8-26,87.5,75.4,64.3,68.4,64.0,58.5,82,69,50,32.12,16.17,14,2,14,0.00
2013-8-27,90.2,80.4,71.9,74.9,70.7,65.8,83,73,58,30.88,16.68,18,2,18,0.00
2013-8-28,79.8,76.2,73.6,74.7,71.9,69.8,93,87,78,16.98,16.98,11,0,11,0.13
2013-8-29,86.5,77.6,73.0,72.7,70.9,69.0,94,81,60,30.88,19.19,13,1,13,0.00
2013-8-30,85.8,77.4,70.8,74.0,70.6,67.3,91,80,65,16.92,16.92,13,2,13,0.00
2013-8-31,88.3,79.2,72.2,76.2,72.1,68.4,89,79,66,31.43,19.20,14,2,14,0.00
2013-9-1,90.8,80.1,69.1,75.7,71.9,66.3,93,77,57,31.92,30.88,14,1,14,0.00
2013-9-2,89.2,79.3,71.1,76.1,72.8,67.6,94,81,62,19.19,19.19,17,1,17,0.11
2013-9-3,85.8,78.4,69.9,73.7,66.3,59.1,91,68,48,19.19,19.19,19,3,19,0.00
2013-9-4,82.7,72.0,60.8,63.2,59.5,56.1,85,66,45,16.92,16.92,14,1,14,0.00
2013-9-5,85.5,74.3,62.0,67.1,61.5,53.3,89,66,50,30.88,16.92,18,2,18,0.00
2013-9-6,77.7,67.9,60.0,55.8,52.9,47.6,82,60,43,31.87,16.93,13,1,13,0.00
2013-9-7,79.3,68.3,55.4,66.0,60.4,52.8,92,77,59,16.93,16.93,14,1,14,0.00
2013-9-8,88.2,76.8,66.0,70.0,65.9,61.6,90,71,52,30.88,18.19,13,2,13,0.00
2013-9-9,78.7,72.4,66.0,69.1,61.2,53.5,86,68,59,31.40,16.92,13,2,13,0.00
2013-9-10,89.7,80.1,72.2,76.6,72.8,68.5,91,79,62,31.39,29.12,12,2,12,0.00
2013-9-11,93.2,81.9,74.0,78.2,73.9,71.2,93,78,56,30.88,28.57,16,1,16,0.00
2013-9-12,90.5,77.6,70.4,76.2,71.2,67.7,93,82,60,16.15,16.15,22,1,22,0.39
2013-9-13,78.3,71.0,63.2,69.2,60.8,52.6,94,72,47,16.91,16.91,20,3,20,0.01
2013-9-14,71.6,62.0,54.2,52.7,49.8,47.4,86,65,49,32.12,16.92,15,2,15,0.00
2013-9-15,75.7,63.6,49.2,60.2,54.1,47.0,95,73,54,30.89,16.92,13,1,13,0.00
2013-9-16,73.5,65.8,59.0,62.2,59.2,55.8,90,80,62,32.12,16.92,15,2,16,0.03
2013-9-17,71.3,60.5,51.3,56.4,48.9,44.6,91,67,42,30.86,16.92,12,1,12,0.00
2013-9-18,72.3,59.6,47.4,52.9,49.0,45.2,93,70,45,32.13,16.92,9,1,10,0.00
2013-9-19,77.3,65.3,53.2,61.1,56.6,50.7,92,75,56,32.14,22.13,13,1,13,0.00
2013-9-20,79.8,68.6,57.1,65.6,60.5,54.5,92,76,60,30.89,29.36,12,1,12,0.00
2013-9-21,75.8,67.5,62.5,66.6,62.5,58.3,94,84,68,30.89,19.20,16,2,16,0.87
2013-9-22,73.5,65.9,58.1,62.2,56.9,50.7,94,74,55,30.89,16.93,15,2,15,0.00
2013-9-23,67.6,59.6,51.8,50.8,48.8,45.9,87,68,53,30.89,16.93,14,2,14,0.00
2013-9-24,74.5,59.4,47.0,56.2,50.2,44.5,93,74,49,16.93,16.93,12,1,12,0.00
2013-9-25,76.1,62.0,50.8,55.6,51.4,48.5,93,72,40,31.72,19.20,11,1,11,0.00
2013-9-26,77.2,65.0,57.0,58.7,55.5,53.4,90,73,49,32.39,30.65,10,1,12,0.00
2013-9-27,74.3,63.5,54.9,61.4,57.3,52.4,93,81,61,32.15,19.07,13,0,13,0.00
2013-9-28,70.5,63.0,56.2,58.3,56.0,53.0,91,79,61,16.93,16.93,14,1,14,0.00
2013-9-29,75.8,61.6,51.1,60.5,55.3,49.2,95,81,57,30.89,16.93,9,0,12,0.00
2013-9-30,77.4,63.8,52.7,59.5,55.4,50.7,94,76,53,16.92,16.92,9,1,9,0.00
2013-10-1,82.7,69.4,57.5,64.9,60.5,54.2,90,75,52,31.40,16.93,12,1,13,0.00
2013-10-2,85.9,72.6,60.0,66.8,62.2,57.1,91,72,50,30.88,16.93,17,1,17,0.00
2013-10-3,84.2,72.3,61.7,69.0,64.2,59.0,92,77,58,31.92,16.16,9,1,9,0.00
2013-10-4,87.7,73.8,63.1,70.6,66.0,61.0,94,78,54,31.40,18.62,11,1,11,0.00
2013-10-5,89.8,76.6,66.0,70.9,67.7,63.8,93,76,53,31.87,30.12,12,1,12,0.00
2013-10-6,87.3,76.2,66.0,71.3,67.7,63.6,93,76,55,30.88,30.88,19,2,19,0.00
2013-10-7,74.8,67.7,59.0,70.9,63.2,49.8,94,86,68,30.88,19.11,20,2,20,0.89
2013-10-8,68.3,59.2,50.6,54.2,50.2,46.6,88,73,54,30.89,19.20,13,1,13,0.00
2013-10-9,62.6,57.8,54.3,54.8,52.0,48.9,91,81,70,16.93,16.93,13,1,13,0.22
2013-10-10,59.6,56.6,54.5,57.6,54.3,52.2,94,92,90,32.38,16.93,15,3,15,1.71
2013-10-11,63.3,61.0,57.3,61.8,59.1,55.3,96,94,92,16.17,16.17,13,3,13,2.90
2013-10-12,68.8,63.8,62.0,62.2,60.6,59.1,95,89,78,30.89,16.17,13,1,13,0.21
2013-10-13,65.8,62.4,59.2,60.5,58.5,54.7,93,87,79,19.20,19.20,14,2,14,0.06
2013-10-14,72.3,62.4,55.5,58.9,56.0,53.2,92,80,61,30.89,16.93,12,1,12,0.00
2013-10-15,73.9,62.6,51.9,59.1,54.3,49.8,95,77,45,16.92,16.92,10,1,10,0.00
2013-10-16,72.0,65.9,61.8,64.4,61.2,58.5,92,85,75,30.89,16.93,6,1,7,0.00
2013-10-17,76.8,68.5,62.4,66.8,63.5,58.9,94,84,67,30.89,16.93,19,1,19,0.00
2013-10-18,68.2,59.4,50.6,58.0,48.2,44.9,92,68,49,31.88,16.17,21,2,21,0.00
2013-10-19,65.4,57.2,47.8,59.3,52.8,45.5,93,86,68,30.90,30.86,13,1,13,0.00
2013-10-20,65.4,55.3,46.0,54.8,42.4,38.1,91,63,43,32.17,16.17,21,2,21,0.00
2013-10-21,67.2,54.6,42.2,49.9,45.6,39.8,93,74,47,19.29,16.94,12,1,12,0.00
2013-10-22,66.3,57.4,51.1,53.3,48.6,40.3,85,73,56,16.94,16.94,14,1,14,0.00
2013-10-23,59.7,51.8,46.4,45.6,41.9,38.2,91,70,49,16.94,16.94,17,2,17,0.09
2013-10-24,54.1,46.4,40.4,38.6,34.7,31.3,84,65,46,16.93,16.93,21,2,21,0.00
2013-10-25,56.7,46.0,35.8,39.0,34.8,31.4,85,66,49,18.64,18.64,20,2,20,0.00
2013-10-26,57.0,46.3,32.3,38.3,33.9,29.1,89,64,45,32.39,16.94,20,2,20,0.00
2013-10-27,62.7,51.1,41.0,43.2,40.0,36.0,86,67,47,30.90,16.93,16,1,16,0.00
2013-10-28,67.3,51.3,39.6,48.5,42.6,36.9,91,74,48,16.92,16.92,9,0,9,0.00
2013-10-29,67.3,53.0,41.9,48.7,44.5,39.5,92,75,50,30.90,16.92,7,0,7,0.00
2013-10-30,66.3,56.8,50.5,58.0,52.7,46.0,93,87,74,19.21,16.94,9,0,9,0.05
2013-10-31,69.5,62.7,55.4,62.0,58.3,53.4,94,86,75,32.38,19.21,15,1,15,0.00
2013-11-1,75.8,68.1,60.4,65.3,61.9,57.5,92,81,61,19.20,19.20,20,3,20,0.12
2013-11-2,70.5,60.6,52.9,59.4,49.7,41.5,92,69,51,19.20,19.20,20,2,20,0.00
2013-11-3,58.8,50.6,42.7,44.5,37.3,29.6,85,62,35,30.90,16.93,15,2,21,0.00
2013-11-4,49.2,42.3,35.4,32.2,28.8,26.1,76,59,46,16.93,16.93,12,1,12,0.00
2013-11-5,58.5,49.6,37.3,49.0,41.3,31.1,81,73,62,19.43,19.43,5,0,6,0.00
2013-11-6,70.3,59.8,52.1,56.6,52.3,48.0,87,77,61,32.18,19.43,13,1,13,0.00
2013-11-7,63.3,55.5,46.3,57.5,49.3,29.2,94,81,50,30.89,21.18,31,3,31,0.02
2013-11-8,53.5,45.3,36.9,34.4,30.6,28.7,76,57,42,16.94,16.94,16,2,23,0.00
2013-11-9,56.1,45.2,31.6,36.4,32.5,27.9,92,63,44,30.91,16.94,15,2,15,0.00
2013-11-10,66.0,51.1,38.8,43.0,35.2,31.1,79,56,37,22.99,22.99,29,3,29,0.00
2013-11-11,58.9,50.2,38.6,37.9,34.6,30.5,75,56,43,16.94,16.94,14,2,14,0.00
2013-11-12,53.5,43.1,32.7,40.7,28.0,19.5,69,55,46,30.90,19.07,27,5,27,0.00
2013-11-13,34.1,32.8,30.9,23.3,22.3,21.3,69,65,62,16.92,16.92,12,1,12,0.00
2013-11-14,57.2,40.3,28.6,30.5,24.5,20.9,76,56,32,16.94,16.94,10,1,10,0.00
2013-11-15,61.4,41.0,32.5,38.8,31.8,28.6,86,71,40,16.94,16.94,5,0,10,0.00
2013-11-16,54.4,51.2,46.9,51.7,48.5,43.8,96,91,87,0.00,40.00,2,0,5,0.33
2013-11-17,63.5,58.4,52.9,58.6,55.4,50.7,94,90,84,0.00,40.00,5,1,13,0.00
2013-11-18,70.2,61.7,52.5,61.9,44.9,33.1,93,59,29,0.00,40.00,10,4,22,0.18
2013-11-19,52.3,46.3,40.7,34.0,31.1,29.3,65,55,49,30.90,30.89,12,5,23,0.00
2013-11-20,49.7,41.1,34.7,32.9,29.4,26.8,82,63,46,0.00,40.00,5,1,13,0.00
2013-11-21,53.9,44.6,33.2,41.7,36.7,29.5,88,74,62,19.43,19.21,4,0,7,0.00
2013-11-22,64.9,56.2,47.1,56.2,49.4,40.6,86,78,68,30.90,21.19,17,1,17,0.00
2013-11-23,60.0,46.8,34.3,51.8,32.1,18.1,76,57,43,21.19,21.19,27,7,27,0.00
2013-11-24,34.4,29.5,26.2,18.0,12.1,8.6,57,48,42,30.92,21.19,30,7,30,0.00
2013-11-25,37.9,31.3,23.4,20.1,15.2,11.2,68,51,38,18.22,18.22,16,2,16,0.00
2013-11-26,46.9,39.1,35.3,45.0,32.2,19.0,94,78,49,30.91,16.95,19,2,19,1.52
2013-11-27,42.2,39.0,31.3,39.2,33.5,18.2,93,81,58,16.94,16.94,27,6,28,0.60
2013-11-28,40.4,33.6,28.4,28.4,21.3,17.0,77,61,49,16.94,16.94,22,3,22,0.00
2013-11-29,44.2,36.3,27.4,28.3,25.6,22.6,85,66,51,31.56,16.94,18,2,18,0.00
2013-11-30,41.7,35.5,27.1,30.6,25.8,21.1,83,68,54,31.56,30.51,10,0,10,0.00
2013-12-1,52.1,39.9,27.6,36.0,30.9,24.4,92,71,51,30.91,17.00,6,0,6,0.00
2013-12-2,50.9,46.9,43.2,42.5,39.3,35.6,78,75,71,19.22,19.22,5,0,5,0.00
2013-12-3,58.7,48.7,42.2,44.1,40.2,36.5,85,73,57,30.90,16.94,10,1,10,0.00
2013-12-4,59.0,52.0,42.8,52.3,46.3,38.6,87,81,71,30.90,16.94,7,0,7,0.00
2013-12-5,70.5,61.2,55.3,61.8,57.2,51.6,93,87,72,30.90,30.90,16,2,16,0.00
2013-12-6,64.4,52.4,41.3,62.6,50.0,38.6,94,92,89,30.90,16.17,18,4,18,0.72
2013-12-7,43.9,39.7,34.4,38.5,32.7,25.1,91,76,64,30.90,30.90,22,5,22,0.17
2013-12-8,34.9,33.1,30.7,32.8,28.0,23.6,92,82,69,32.40,16.94,12,1,12,0.38
2013-12-9,38.7,35.4,34.1,36.7,33.3,31.8,93,92,91,30.88,19.44,6,0,7,0.92
2013-12-10,40.1,35.4,29.1,35.5,31.7,23.9,94,87,67,31.40,21.64,17,1,17,0.29
2013-12-11,44.5,32.7,25.6,27.8,25.1,22.0,92,75,49,30.88,16.93,8,0,8,0.06
2013-12-12,34.9,30.7,26.6,26.4,19.5,15.9,85,63,48,30.92,16.93,22,3,22,0.00
2013-12-13,43.4,35.6,26.2,28.8,22.0,15.8,79,58,42,30.92,16.94,10,1,13,0.00
2013-12-14,43.4,39.0,34.4,38.1,33.7,26.6,92,81,70,17.44,17.44,10,1,12,0.45
2013-12-15,49.4,39.9,32.9,40.7,33.0,25.3,92,77,57,31.39,16.94,23,3,23,0.00
2013-12-16,41.0,38.3,34.1,31.2,28.9,26.7,76,69,61,18.20,18.20,8,1,11,0.00
2013-12-17,42.9,39.2,36.7,37.5,33.2,28.8,87,79,72,32.40,16.94,8,1,8,0.00
2013-12-18,43.8,37.1,31.0,33.8,28.2,24.6,91,71,53,30.91,16.94,21,2,21,0.01
2013-12-19,61.4,45.6,29.8,38.1,32.0,24.5,85,61,40,32.28,16.94,15,1,15,0.00
2013-12-20,62.1,53.9,46.1,49.5,39.5,33.2,74,58,50,32.28,29.14,12,2,12,0.00
2013-12-21,72.0,62.9,54.9,61.9,53.9,45.8,84,73,62,30.90,29.14,21,4,21,0.00
2013-12-22,72.0,65.3,61.7,65.1,61.3,58.8,93,87,76,32.38,16.93,22,4,22,0.24
2013-12-23,63.6,56.1,41.1,62.2,51.5,31.0,95,85,67,30.90,30.89,24,4,24,0.70
2013-12-24,41.7,36.1,26.2,31.6,23.5,12.1,70,60,47,30.90,30.90,23,6,24,0.00
2013-12-25,35.2,28.7,23.4,22.9,16.8,12.8,78,61,47,18.55,18.55,14,2,14,0.00
2013-12-26,47.6,35.0,25.9,31.0,25.5,21.0,86,69,49,19.44,19.44,11,1,11,0.00
2013-12-27,50.8,38.5,29.2,29.8,26.6,22.4,80,64,42,16.94,16.94,11,1,11,0.00
2013-12-28,57.7,44.2,30.4,35.6,30.9,25.6,84,61,41,19.22,19.22,12,1,12,0.00
2013-12-29,50.0,46.9,43.4,46.9,41.7,32.8,93,83,56,19.16,19.16,14,2,14,1.25
2013-12-30,47.5,41.3,36.7,41.0,34.4,25.4,92,77,64,19.34,19.34,20,2,20,0.00
2013-12-31,47.6,38.2,32.6,32.5,25.8,21.2,73,61,49,16.59,16.59,27,3,27,0.00
2014-1-1,48.5,38.8,29.0,34.8,29.0,21.3,84,68,53,19.22,19.22,13,1,13,0.00
2014-1-2,41.7,36.5,32.7,36.0,32.9,29.4,92,87,78,16.88,16.88,12,1,12,0.07